Time;durP1;ratioP1;P1;durP2;ratioP2;P2;SDS_P1;SDS_P2;PMS_P1;PMS_P2;Temp;Humidity;BMP_temperature;BMP_pressure;BME280_temperature;BME280_humidity;BME280_pressure;Samples;Min_cycle;Max_cycle;Signal;HPM_P1;HPM_P2
2024/01/20 07:54:35;;;;;;;35.92;15.05;;;;;;;;;;2083947;28;20562;-60
2024/01/20 07:55:40;;;;;;;36.90;16.67;;;;;;;;;;2082742;28;20216;-60
2024/01/20 08:00:13;;;;;;;38.33;17.75;;;;;;;-6.30;99.84;97848.22;2106472;27;20578;-57
2024/01/20 08:06:45;;;;;;;40.72;19.05;;;;;;;-5.79;96.85;97842.59;2082700;28;20565;-59
2024/01/20 08:07:46;;;;;;;38.17;17.52;;;;;;;-5.47;96.02;97849.69;2080537;28;20194;-59
2024/01/20 08:08:48;;;;;;;38.42;17.02;;;;;;;-5.11;94.29;97842.56;2080356;28;20219;-60
2024/01/20 08:09:49;;;;;;;39.15;19.17;;;;;;;-4.69;93.31;97845.72;2080927;28;20288;-60
2024/01/20 08:10:51;;;;;;;34.40;18.35;;;;;;;-4.42;91.48;97845.78;2080019;28;20204;-60
2024/01/20 08:11:52;;;;;;;44.35;20.05;;;;;;;-4.12;89.46;97847.63;2081921;28;20291;-61
2024/01/20 08:12:55;;;;;;;147.25;69.45;;;;;;;-3.78;88.20;97848.69;2077444;28;20291;-60
2024/01/20 08:13:56;;;;;;;25.00;14.20;;;;;;;-4.29;87.18;97849.63;2080974;28;20535;-59
2024/01/20 08:14:58;;;;;;;35.50;16.42;;;;;;;-3.77;86.77;97842.78;2080527;28;20254;-61
2024/01/20 08:15:59;;;;;;;27.00;15.30;;;;;;;-3.54;85.60;97845.13;2078369;28;20205;-60
2024/01/20 08:17:01;;;;;;;32.80;16.75;;;;;;;-3.68;85.42;97844.72;2082536;28;20250;-60
2024/01/20 08:18:03;;;;;;;33.20;16.52;;;;;;;-3.41;85.69;97836.19;2081447;28;20197;-60
2024/01/20 08:19:04;;;;;;;30.50;16.08;;;;;;;-3.14;83.77;97846.31;2082342;28;20228;-60
2024/01/20 08:20:07;;;;;;;34.90;15.48;;;;;;;-2.99;83.28;97830.53;2082202;28;20236;-60
2024/01/20 08:21:08;;;;;;;32.50;16.48;;;;;;;-3.05;81.48;97840.59;2082501;28;20236;-60
2024/01/20 08:22:10;;;;;;;43.05;17.42;;;;;;;-2.42;80.85;97844.00;2080926;28;20201;-60
2024/01/20 08:23:12;;;;;;;33.50;16.45;;;;;;;-2.09;79.86;97835.44;2080315;28;20344;-62
2024/01/20 08:24:13;;;;;;;25.73;14.40;;;;;;;-1.93;77.59;97837.53;2080310;28;20207;-60
2024/01/20 08:25:15;;;;;;;45.42;14.95;;;;;;;-1.58;77.43;97834.03;2080826;28;20715;-60
2024/01/20 08:26:19;;;;;;;28.95;15.88;;;;;;;-0.88;74.85;97839.78;2080593;28;20262;-61
2024/01/20 08:27:21;;;;;;;25.85;13.90;;;;;;;-0.50;73.41;97837.09;2077193;28;20622;-59
2024/01/20 08:28:22;;;;;;;30.55;16.00;;;;;;;-0.58;72.51;97837.78;2079202;28;20280;-58
2024/01/20 08:29:24;;;;;;;26.65;15.25;;;;;;;-0.24;71.90;97844.38;2081405;28;20197;-58
2024/01/20 08:30:25;;;;;;;25.92;14.70;;;;;;;-0.54;71.39;97845.56;2082632;28;20204;-58
2024/01/20 08:31:27;;;;;;;27.77;13.73;;;;;;;-0.13;71.04;97841.13;2082002;28;20228;-59
2024/01/20 08:32:29;;;;;;;36.78;16.70;;;;;;;0.17;70.19;97848.47;2082940;28;20255;-59
2024/01/20 08:33:31;;;;;;;28.98;14.20;;;;;;;-0.12;70.25;97832.59;2081393;28;20216;-59
2024/01/20 08:34:33;;;;;;;33.05;14.50;;;;;;;0.45;68.96;97851.47;2082197;28;20663;-59
2024/01/20 08:35:34;;;;;;;29.23;15.65;;;;;;;0.94;67.43;97852.13;2081776;28;20197;-59
2024/01/20 08:36:36;;;;;;;28.42;15.60;;;;;;;0.83;67.97;97850.28;2081667;28;20189;-59
2024/01/20 08:37:37;;;;;;;27.75;14.73;;;;;;;0.86;67.84;97852.88;2080277;28;20235;-59
2024/01/20 08:38:39;;;;;;;30.92;15.07;;;;;;;1.10;66.86;97853.19;2077700;28;20217;-59
2024/01/20 08:39:50;;;;;;;29.10;15.25;;;;;;;1.10;65.42;97860.03;2081582;28;20335;-59
2024/01/20 08:40:51;;;;;;;28.38;15.18;;;;;;;1.22;66.31;97862.78;2078812;28;20252;-60
2024/01/20 08:41:53;;;;;;;25.35;13.55;;;;;;;0.76;66.64;97868.19;2081139;28;20212;-59
2024/01/20 08:42:54;;;;;;;26.05;14.35;;;;;;;1.31;66.65;97872.31;2080686;28;20437;-59
2024/01/20 08:43:56;;;;;;;24.98;14.82;;;;;;;1.31;66.02;97869.75;2079711;28;20277;-61
2024/01/20 08:44:57;;;;;;;31.58;17.70;;;;;;;1.34;65.40;97872.34;2081878;28;20224;-60
2024/01/20 08:45:59;;;;;;;25.75;15.20;;;;;;;1.34;65.24;97871.50;2081907;28;20834;-60
2024/01/20 08:47:01;;;;;;;29.02;17.83;;;;;;;1.25;65.31;97869.66;2081041;28;20217;-61
2024/01/20 08:48:02;;;;;;;26.38;15.13;;;;;;;1.23;64.48;97882.53;2080186;28;20620;-60
2024/01/20 08:49:04;;;;;;;21.33;13.88;;;;;;;1.26;64.28;97876.53;2080891;28;20761;-60
2024/01/20 08:50:06;;;;;;;25.90;16.10;;;;;;;1.25;64.63;97878.25;2082135;28;20200;-60
2024/01/20 08:51:07;;;;;;;25.48;15.27;;;;;;;1.70;64.39;97880.44;2078455;28;20204;-60
2024/01/20 08:52:10;;;;;;;26.98;16.33;;;;;;;1.99;63.22;97882.44;2082285;28;20199;-60
2024/01/20 08:53:13;;;;;;;26.45;15.02;;;;;;;2.06;61.88;97881.66;2078992;28;20254;-59
2024/01/20 08:54:16;;;;;;;34.08;15.38;;;;;;;2.31;61.70;97885.31;2083925;28;20243;-60
2024/01/20 08:55:17;;;;;;;23.73;14.95;;;;;;;2.38;61.50;97876.75;2080336;28;20264;-59
2024/01/20 08:56:19;;;;;;;23.60;14.75;;;;;;;2.40;60.95;97887.06;2083818;28;20228;-59
2024/01/20 08:57:20;;;;;;;25.60;15.18;;;;;;;3.41;60.38;97880.78;2083516;28;20626;-59
2024/01/20 08:58:22;;;;;;;24.52;14.80;;;;;;;1.86;61.58;97878.91;2081695;28;20229;-59
2024/01/20 08:59:23;;;;;;;24.15;14.60;;;;;;;2.58;61.08;97882.06;2082870;28;20836;-64
2024/01/20 09:00:25;;;;;;;24.42;14.85;;;;;;;2.78;59.23;97881.31;2080286;28;20586;-64
2024/01/20 09:01:26;;;;;;;27.00;14.20;;;;;;;1.78;61.39;97886.56;2080317;28;20197;-64
2024/01/20 09:02:28;;;;;;;26.15;15.88;;;;;;;2.82;60.89;97875.34;2077984;28;20240;-64
2024/01/20 09:03:30;;;;;;;28.25;15.52;;;;;;;0.62;62.87;97879.97;2080785;28;20244;-63
2024/01/20 09:04:32;;;;;;;24.30;15.32;;;;;;;1.39;64.13;97885.28;2081832;28;20292;-63
2024/01/20 09:05:33;;;;;;;24.60;14.57;;;;;;;2.07;61.11;97885.94;2081797;28;20196;-63
2024/01/20 09:06:39;;;;;;;34.88;15.90;;;;;;;0.55;64.63;97891.88;2081966;28;20619;-63
2024/01/20 09:07:41;;;;;;;22.30;13.88;;;;;;;-0.18;67.28;97885.56;2078657;28;20208;-64
2024/01/20 09:08:43;;;;;;;24.38;13.70;;;;;;;0.24;66.92;97887.97;2080536;28;20317;-63
2024/01/20 09:09:44;;;;;;;35.78;16.23;;;;;;;0.24;67.47;97885.41;2078240;28;20221;-62
2024/01/20 09:10:45;;;;;;;30.77;15.65;;;;;;;0.34;68.13;97887.25;2078520;28;20193;-62
2024/01/20 09:11:47;;;;;;;26.35;14.70;;;;;;;0.96;66.20;97891.59;2081887;28;20228;-62
2024/01/20 09:12:49;;;;;;;23.60;13.40;;;;;;;0.26;67.04;97892.28;2082197;28;20195;-62
2024/01/20 09:13:51;;;;;;;25.92;13.75;;;;;;;0.73;66.60;97893.00;2080745;28;20228;-62
2024/01/20 09:14:53;;;;;;;25.40;14.40;;;;;;;1.36;65.10;97887.78;2084140;28;20282;-62
2024/01/20 09:15:54;;;;;;;25.42;13.18;;;;;;;0.68;63.91;97898.06;2082742;28;20688;-62
2024/01/20 09:16:56;;;;;;;25.88;13.88;;;;;;;0.83;65.03;97897.44;2077982;28;20193;-62
2024/01/20 09:17:58;;;;;;;23.05;12.88;;;;;;;1.37;64.46;97890.41;2074468;28;20916;-62
2024/01/20 09:18:59;;;;;;;25.20;13.98;;;;;;;2.51;62.13;97887.16;2073698;28;20233;-62
2024/01/20 09:20:01;;;;;;;104.80;53.03;;;;;;;3.12;61.48;97889.25;2074657;28;20194;-61
2024/01/20 09:21:08;;;;;;;47.72;25.85;;;;;;;3.57;59.53;97898.03;2076263;28;20239;-62
2024/01/20 09:22:10;;;;;;;30.08;15.63;;;;;;;2.99;59.97;97896.06;2078118;28;20208;-61
2024/01/20 09:23:11;;;;;;;31.70;16.67;;;;;;;3.02;61.20;97901.28;2075289;28;20225;-61
2024/01/20 09:24:13;;;;;;;24.30;13.93;;;;;;;4.23;59.76;97893.88;2075863;28;20226;-62
2024/01/20 09:25:16;;;;;;;27.52;14.02;;;;;;;4.49;58.72;97905.94;2076058;28;20282;-62
2024/01/20 09:26:17;;;;;;;23.55;13.75;;;;;;;5.56;55.88;97903.94;2077468;28;20205;-62
2024/01/20 09:27:19;;;;;;;25.80;14.43;;;;;;;4.97;55.45;97898.13;2072565;28;20210;-62
2024/01/20 09:28:20;;;;;;;25.85;13.15;;;;;;;4.97;55.24;97911.91;2074905;28;20283;-62
2024/01/20 09:29:22;;;;;;;24.60;14.30;;;;;;;4.94;56.24;97904.16;2075964;28;20208;-62
2024/01/20 09:30:24;;;;;;;24.27;12.80;;;;;;;5.70;54.57;97898.69;2076611;28;20229;-62
2024/01/20 09:31:26;;;;;;;23.08;13.48;;;;;;;5.33;54.69;97904.91;2076693;28;20193;-62
2024/01/20 09:32:30;;;;;;;26.55;15.27;;;;;;;4.54;55.68;97906.78;2076142;28;20600;-62
2024/01/20 09:33:32;;;;;;;22.65;13.77;;;;;;;4.89;55.42;97916.25;2076070;28;20216;-62
2024/01/20 09:34:34;;;;;;;25.25;14.32;;;;;;;4.83;55.42;97914.53;2077108;28;20201;-61
2024/01/20 09:35:35;;;;;;;23.92;14.57;;;;;;;5.34;55.22;97911.81;2076094;28;20281;-62
2024/01/20 09:36:37;;;;;;;28.15;15.20;;;;;;;5.47;53.83;97916.94;2076167;28;20259;-62
2024/01/20 09:37:39;;;;;;;26.17;15.13;;;;;;;4.89;55.11;97901.56;2078415;28;20560;-62
2024/01/20 09:38:40;;;;;;;26.00;15.25;;;;;;;4.44;56.88;97916.28;2075506;28;20266;-62
2024/01/20 09:39:42;;;;;;;24.52;13.68;;;;;;;5.36;55.62;97915.25;2075991;28;20204;-62
2024/01/20 09:40:44;;;;;;;26.48;14.75;;;;;;;5.36;55.62;97915.25;2075488;28;20198;-62
2024/01/20 09:41:45;;;;;;;25.00;14.65;;;;;;;6.16;52.20;97921.78;2074911;28;20198;-62
2024/01/20 09:42:48;;;;;;;24.52;14.05;;;;;;;4.94;53.23;97929.16;2077289;28;20220;-62
2024/01/20 09:43:51;;;;;;;29.65;16.58;;;;;;;2.14;57.89;97925.53;2076147;28;20339;-62
2024/01/20 09:44:53;;;;;;;31.85;16.85;;;;;;;2.58;60.81;97925.06;2074961;28;20257;-62
2024/01/20 09:45:57;;;;;;;26.75;15.45;;;;;;;3.32;59.63;97933.25;2072314;28;20194;-62
2024/01/20 09:46:58;;;;;;;24.52;15.27;;;;;;;3.41;59.57;97933.28;2073910;28;20856;-62
2024/01/20 09:48:00;;;;;;;24.77;15.20;;;;;;;3.36;58.82;97927.22;2075650;28;20206;-62
2024/01/20 09:49:01;;;;;;;26.15;15.35;;;;;;;4.73;56.28;97920.56;2072230;28;20252;-62
2024/01/20 09:50:04;;;;;;;27.23;15.68;;;;;;;4.89;55.59;97930.06;2074932;28;20193;-62
2024/01/20 09:51:07;;;;;;;26.52;15.40;;;;;;;3.79;57.57;97934.28;2075924;28;20344;-62
2024/01/20 09:52:18;;;;;;;31.75;16.02;;;;;;;3.49;58.09;97879.09;2072858;28;20209;-62
2024/01/20 09:53:20;;;;;;;29.33;15.90;;;;;;;3.48;57.70;97926.44;2069331;28;20304;-62
2024/01/20 09:54:22;;;;;;;27.23;16.65;;;;;;;2.14;60.07;97933.28;2074098;28;20202;-61
2024/01/20 09:55:24;;;;;;;29.90;16.00;;;;;;;0.87;64.01;97936.91;2073583;28;20201;-61
2024/01/20 09:56:27;;;;;;;28.77;16.45;;;;;;;1.18;64.07;97932.19;2072827;28;20349;-62
2024/01/20 09:57:29;;;;;;;31.08;17.23;;;;;;;1.49;65.34;97925.72;2071974;28;20198;-62
2024/01/20 09:58:33;;;;;;;33.20;16.95;;;;;;;2.49;62.49;97920.69;2072975;28;20305;-63
2024/01/20 09:59:35;;;;;;;35.53;17.33;;;;;;;2.16;62.07;97926.41;2073985;28;20205;-62
2024/01/20 10:00:37;;;;;;;29.20;17.08;;;;;;;2.82;61.48;97926.06;2073581;28;20355;-61
2024/01/20 10:01:41;;;;;;;30.48;16.58;;;;;;;3.59;59.98;97935.09;2076855;28;20239;-61
2024/01/20 10:02:44;;;;;;;27.75;14.23;;;;;;;2.63;60.33;97925.94;2078892;28;21232;-61
2024/01/20 10:03:47;;;;;;;29.20;15.48;;;;;;;2.78;60.35;97938.06;2074627;28;20221;-61
2024/01/20 10:04:55;;;;;;;28.02;16.60;;;;;;;1.89;60.53;97927.88;2074047;28;20277;-61
2024/01/20 10:05:57;;;;;;;27.52;14.93;;;;;;;3.68;59.98;97912.72;2077029;28;20197;-61
2024/01/20 10:06:59;;;;;;;30.52;16.00;;;;;;;4.01;57.87;97924.00;2076002;28;20822;-61
2024/01/20 10:08:02;;;;;;;31.52;15.57;;;;;;;2.68;60.56;97932.00;2075709;28;20232;-62
2024/01/20 10:09:03;;;;;;;48.80;25.35;;;;;;;4.25;58.12;97936.97;2073175;28;20442;-63
2024/01/20 10:10:06;;;;;;;30.05;17.08;;;;;;;4.79;57.05;97941.28;2075075;28;20205;-62
2024/01/20 10:11:07;;;;;;;29.17;16.73;;;;;;;5.03;55.01;97940.38;2076392;28;20694;-62
2024/01/20 10:12:09;;;;;;;23.67;14.65;;;;;;;5.14;54.77;97939.50;2074659;28;20472;-61
2024/01/20 10:13:13;;;;;;;29.00;16.63;;;;;;;3.81;57.65;97942.03;2072596;28;20207;-62
2024/01/20 10:14:14;;;;;;;29.25;17.20;;;;;;;4.30;56.81;97939.53;2075361;28;20213;-61
2024/01/20 10:15:30;;;;;;;36.20;17.17;;;;;;;4.35;56.97;97936.97;2072164;28;20204;-61
2024/01/20 10:16:41;;;;;;;37.97;16.42;;;;;;;5.10;55.79;97940.38;2075778;28;20204;-61
2024/01/20 10:17:42;;;;;;;37.28;16.27;;;;;;;5.59;54.37;97941.94;2076174;28;20193;-62
2024/01/20 10:18:44;;;;;;;25.00;15.55;;;;;;;6.23;52.70;97948.56;2070695;28;20226;-57
2024/01/20 10:19:46;;;;;;;28.55;16.50;;;;;;;5.46;54.63;97943.72;2075145;28;20281;-57
2024/01/20 10:20:47;;;;;;;27.20;16.15;;;;;;;6.44;53.98;97939.75;2075136;28;20267;-62
2024/01/20 10:21:50;;;;;;;26.02;14.77;;;;;;;6.87;52.17;97948.94;2075615;28;20209;-62
2024/01/20 10:22:52;;;;;;;27.88;16.02;;;;;;;5.23;54.10;97948.13;2075908;28;20292;-63
2024/01/20 10:23:53;;;;;;;43.17;17.45;;;;;;;6.97;52.35;97944.50;2076306;28;20236;-58
2024/01/20 10:24:55;;;;;;;44.70;16.48;;;;;;;6.65;53.00;97937.88;2074934;28;20561;-58
2024/01/20 10:26:01;;;;;;;60.88;18.17;;;;;;;6.96;52.32;97942.81;2071886;28;20330;-59
2024/01/20 10:27:03;;;;;;;28.80;15.45;;;;;;;6.79;50.90;97949.00;2076359;28;20288;-58
2024/01/20 10:28:07;;;;;;;30.17;16.30;;;;;;;7.42;50.79;97942.31;2074083;28;20212;-59
2024/01/20 10:29:09;;;;;;;28.55;16.52;;;;;;;6.46;52.03;97947.53;2072220;28;20217;-59
2024/01/20 10:30:11;;;;;;;26.70;16.75;;;;;;;5.94;52.29;97944.38;2071796;28;20197;-59
2024/01/20 10:31:13;;;;;;;26.55;15.95;;;;;;;4.88;53.88;97941.25;2075600;28;20194;-59
2024/01/20 10:32:15;;;;;;;29.00;15.82;;;;;;;5.65;54.54;97949.69;2074381;28;20213;-59
2024/01/20 10:33:17;;;;;;;27.33;16.13;;;;;;;6.41;52.68;97947.56;2076099;28;20580;-59
2024/01/20 10:34:20;;;;;;;30.42;15.57;;;;;;;7.15;51.26;97943.47;2076553;28;20247;-59
2024/01/20 10:35:21;;;;;;;27.80;15.75;;;;;;;5.79;53.74;97934.06;2071787;28;20202;-58
2024/01/20 10:36:24;;;;;;;27.85;15.82;;;;;;;5.31;55.82;97949.84;2075617;28;20204;-59
2024/01/20 10:37:29;;;;;;;29.50;16.95;;;;;;;6.19;54.83;97945.09;2075247;28;20255;-58
2024/01/20 10:38:37;;;;;;;27.55;16.55;;;;;;;6.40;53.53;97944.97;2074020;28;20738;-58
2024/01/20 10:39:44;;;;;;;25.92;15.07;;;;;;;5.23;53.58;97937.75;2074098;28;20201;-56
2024/01/20 10:40:51;;;;;;;30.88;15.77;;;;;;;5.81;54.71;97942.72;2072975;28;20300;-57
2024/01/20 10:41:53;;;;;;;29.10;17.00;;;;;;;3.96;57.70;97941.22;2074966;28;20197;-57
2024/01/20 10:43:00;;;;;;;28.77;16.20;;;;;;;5.53;54.18;97922.09;2075894;28;20202;-57
2024/01/20 10:44:02;;;;;;;30.63;16.10;;;;;;;6.85;52.65;97948.94;2076122;28;20248;-56
2024/01/20 10:45:09;;;;;;;29.30;15.90;;;;;;;6.85;52.65;97948.94;2071805;28;20198;-56
2024/01/20 10:46:26;;;;;;;32.40;16.10;;;;;;;4.83;56.26;97952.50;2072589;28;20296;-56
2024/01/20 10:48:32;;;;;;;31.73;15.30;;;;;;;5.89;52.87;97943.53;2073964;28;20642;-56
2024/01/20 10:49:38;;;;;;;40.35;16.83;;;;;;;6.02;53.97;97940.03;2054147;28;20233;-57
2024/01/20 10:50:44;;;;;;;27.55;15.50;;;;;;;7.16;51.33;97927.00;2054751;28;20213;-56
2024/01/20 10:51:46;;;;;;;28.42;17.50;;;;;;;7.64;51.40;97932.53;2054218;28;20203;-57
2024/01/20 10:52:49;;;;;;;32.40;17.77;;;;;;;8.05;49.82;97922.47;2053920;28;20675;-57
2024/01/20 10:53:51;;;;;;;28.85;16.60;;;;;;;6.88;50.94;97932.47;2053150;28;20682;-58
2024/01/20 10:54:53;;;;;;;28.90;16.60;;;;;;;6.44;51.59;97929.38;2053939;28;20195;-57
2024/01/20 10:55:57;;;;;;;30.10;19.17;;;;;;;5.05;54.16;97920.53;2054735;28;20579;-59
2024/01/20 10:56:58;;;;;;;30.00;17.40;;;;;;;5.38;54.93;97921.31;2054811;28;20230;-58
2024/01/20 10:58:05;;;;;;;37.10;20.58;;;;;;;5.78;54.52;97922.84;2053613;28;20202;-58
2024/01/20 10:59:12;;;;;;;39.90;17.92;;;;;;;7.88;51.36;97917.47;2054474;28;20250;-58
2024/01/20 11:00:18;;;;;;;30.42;17.80;;;;;;;8.18;49.41;97923.13;2053822;28;20203;-58
2024/01/20 11:01:20;;;;;;;37.53;18.13;;;;;;;8.11;49.45;97911.97;2054368;28;20405;-58
2024/01/20 11:02:23;;;;;;;29.90;18.08;;;;;;;5.20;53.31;97922.19;2046474;29;20199;-58
2024/01/20 11:03:25;;;;;;;27.45;17.75;;;;;;;6.93;53.45;97928.13;2046081;28;20220;-56
2024/01/20 11:04:33;;;;;;;28.60;15.90;;;;;;;6.90;51.12;97925.53;2054125;28;20195;-56
2024/01/20 11:05:35;;;;;;;29.33;15.60;;;;;;;7.85;50.88;97922.72;2046189;29;20208;-56
2024/01/20 11:06:36;;;;;;;24.73;15.80;;;;;;;8.20;49.68;97923.09;2046271;28;20244;-55
2024/01/20 11:07:38;;;;;;;31.38;16.55;;;;;;;8.80;48.01;97928.25;2054137;28;20226;-56
2024/01/20 11:08:48;;;;;;;35.35;17.60;;;;;;;9.27;47.19;97924.84;2053886;28;20229;-56
2024/01/20 11:09:56;;;;;;;26.60;15.45;;;;;;;7.58;49.53;97930.00;2054314;28;20685;-56
2024/01/20 11:10:59;;;;;;;33.20;19.17;;;;;;;6.90;51.32;97922.09;2054004;28;20571;-56
2024/01/20 11:12:07;;;;;;;26.38;16.67;;;;;;;6.42;52.21;97928.53;2054311;28;20213;-56
2024/01/20 11:13:11;;;;;;;30.70;17.52;;;;;;;6.50;51.42;97905.09;2053165;28;20750;-57
2024/01/20 11:14:13;;;;;;;30.25;17.83;;;;;;;6.35;52.61;97930.31;2053778;28;20204;-56
2024/01/20 11:15:16;;;;;;;28.83;16.15;;;;;;;6.87;51.79;97933.38;2053715;28;20259;-57
2024/01/20 11:16:22;;;;;;;27.75;17.60;;;;;;;7.48;51.19;97928.41;2053934;28;20242;-56
2024/01/20 11:17:24;;;;;;;29.23;18.00;;;;;;;7.50;50.35;97929.22;2054108;28;20352;-58
2024/01/20 11:18:26;;;;;;;29.88;17.80;;;;;;;7.93;50.36;97926.06;2053056;28;20223;-57
2024/01/20 11:19:32;;;;;;;28.27;17.00;;;;;;;8.47;49.09;97921.88;2053080;28;20207;-57
2024/01/20 11:20:34;;;;;;;38.50;17.88;;;;;;;7.16;50.66;97909.69;2054275;28;20352;-57
2024/01/20 11:21:36;;;;;;;29.40;17.85;;;;;;;6.47;51.83;97924.16;2054154;28;20203;-57
2024/01/20 11:22:39;;;;;;;31.73;18.65;;;;;;;7.31;51.37;97926.84;2054210;28;20203;-57
2024/01/20 11:23:45;;;;;;;30.58;17.58;;;;;;;7.08;51.45;97923.63;2053380;28;20218;-57
2024/01/20 11:24:46;;;;;;;31.02;17.25;;;;;;;6.43;51.53;97925.06;2068751;28;20210;-57
2024/01/20 11:25:49;;;;;;;30.05;18.05;;;;;;;6.33;52.12;97920.81;2071585;28;20209;-57
2024/01/20 11:26:51;;;;;;;34.08;19.42;;;;;;;7.02;52.02;97922.81;2071487;28;20197;-57
2024/01/20 11:27:54;;;;;;;40.83;18.80;;;;;;;7.90;50.21;97910.53;2074252;28;20202;-57
2024/01/20 11:28:58;;;;;;;37.65;17.27;;;;;;;7.47;50.14;97917.13;2073427;28;20222;-57
2024/01/20 11:30:07;;;;;;;28.88;17.35;;;;;;;7.24;50.66;97916.50;2074443;28;20732;-57
2024/01/20 11:31:30;;;;;;;29.85;16.92;;;;;;;5.02;53.94;97922.28;2075078;28;20260;-57
2024/01/20 11:32:33;;;;;;;32.33;17.85;;;;;;;5.26;53.63;97921.34;2074341;28;20201;-57
2024/01/20 11:33:36;;;;;;;33.63;17.40;;;;;;;6.26;53.95;97917.41;2074386;28;20287;-57
2024/01/20 11:34:37;;;;;;;31.60;17.90;;;;;;;5.97;54.23;97915.00;2073739;28;20194;-57
2024/01/20 11:35:39;;;;;;;35.70;16.23;;;;;;;7.07;52.46;97912.38;2073152;28;20558;-57
2024/01/20 11:36:40;;;;;;;40.50;16.20;;;;;;;7.57;50.84;97909.19;2073451;28;20202;-57
2024/01/20 11:37:42;;;;;;;32.75;16.77;;;;;;;8.24;49.36;97898.75;2074153;28;20201;-59
2024/01/20 11:38:45;;;;;;;37.63;21.40;;;;;;;7.85;49.50;97894.13;2073120;28;20279;-58
2024/01/20 11:39:46;;;;;;;30.15;18.15;;;;;;;7.63;50.02;97899.59;2075472;28;20213;-58
2024/01/20 11:40:59;;;;;;;30.50;16.85;;;;;;;6.44;53.10;97902.59;2074880;28;20296;-60
2024/01/20 11:42:02;;;;;;;44.70;18.20;;;;;;;7.17;52.50;97898.44;2073510;28;20649;-59
2024/01/20 11:43:06;;;;;;;29.25;17.40;;;;;;;5.42;53.71;97903.16;2072778;28;20206;-59
2024/01/20 11:44:07;;;;;;;31.00;17.52;;;;;;;6.65;53.17;97901.53;2074596;28;20490;-59
2024/01/20 11:45:12;;;;;;;28.23;16.95;;;;;;;6.09;52.43;97898.50;2073432;28;20557;-59
2024/01/20 11:46:14;;;;;;;37.78;17.88;;;;;;;6.61;52.92;97853.97;2073817;28;20199;-59
2024/01/20 11:47:16;;;;;;;31.73;16.85;;;;;;;5.67;53.57;97893.53;2074972;28;20196;-59
2024/01/20 11:48:18;;;;;;;29.15;17.20;;;;;;;5.58;54.60;97884.06;2071273;28;20250;-58
2024/01/20 11:49:19;;;;;;;30.98;17.15;;;;;;;5.95;54.37;97894.22;2072364;28;20206;-59
2024/01/20 11:50:22;;;;;;;28.25;15.80;;;;;;;5.22;54.41;97884.22;2073508;28;20205;-59
2024/01/20 11:51:24;;;;;;;29.67;17.70;;;;;;;5.96;53.90;97885.59;2073247;28;20201;-59
2024/01/20 11:52:25;;;;;;;28.20;15.73;;;;;;;6.49;53.30;97886.09;2071317;28;20220;-59
2024/01/20 11:53:27;;;;;;;30.92;16.40;;;;;;;6.07;52.29;97882.97;2069507;28;20632;-59
2024/01/20 11:54:29;;;;;;;30.70;16.67;;;;;;;5.56;53.63;97875.44;2074903;28;20208;-59
2024/01/20 11:55:30;;;;;;;30.50;15.65;;;;;;;5.45;54.39;97865.13;2075082;28;20209;-59
2024/01/20 11:56:32;;;;;;;29.15;16.85;;;;;;;5.79;54.18;97875.34;2078869;28;20255;-59
2024/01/20 11:57:34;;;;;;;29.40;16.90;;;;;;;6.14;53.99;97857.84;2080108;28;20260;-59
2024/01/20 11:58:36;;;;;;;28.55;16.90;;;;;;;6.50;53.69;97863.59;2074820;28;20759;-59
2024/01/20 11:59:38;;;;;;;29.75;17.38;;;;;;;6.64;52.85;97859.16;2075538;28;20200;-59
2024/01/20 12:00:42;;;;;;;31.00;18.25;;;;;;;6.08;54.44;97863.06;2074087;28;20856;-59
2024/01/20 12:01:43;;;;;;;34.45;17.52;;;;;;;6.29;53.56;97857.72;2075281;28;20770;-59
2024/01/20 12:02:50;;;;;;;28.60;17.00;;;;;;;5.32;55.61;97853.09;2072415;28;20696;-58
2024/01/20 12:03:52;;;;;;;32.42;17.95;;;;;;;5.21;56.43;97855.75;2071225;28;20216;-59
2024/01/20 12:04:54;;;;;;;36.63;17.85;;;;;;;6.11;54.77;97850.94;2072865;28;20197;-59
2024/01/20 12:06:06;;;;;;;26.67;16.65;;;;;;;6.50;53.48;97846.28;2073756;28;20947;-59
2024/01/20 12:07:13;;;;;;;31.08;18.08;;;;;;;5.39;55.17;97842.69;2074482;28;20251;-59
2024/01/20 12:08:15;;;;;;;32.38;18.40;;;;;;;5.41;55.66;97847.91;2064142;28;20200;-59
2024/01/20 12:09:16;;;;;;;27.70;17.20;;;;;;;5.89;55.60;97838.09;2076389;28;20202;-59
2024/01/20 12:10:18;;;;;;;33.85;17.77;;;;;;;6.48;53.85;97836.81;2075673;28;20271;-59
2024/01/20 12:11:20;;;;;;;36.05;18.45;;;;;;;5.78;54.47;97823.50;2075668;28;20201;-59
2024/01/20 12:12:22;;;;;;;37.22;17.30;;;;;;;5.83;55.02;97835.56;2075389;28;20201;-59
2024/01/20 12:13:26;;;;;;;30.52;17.33;;;;;;;5.98;55.48;97842.41;2072921;28;20217;-60
2024/01/20 12:14:28;;;;;;;31.10;16.88;;;;;;;5.58;54.51;97840.03;2075326;28;20255;-59
2024/01/20 12:15:36;;;;;;;29.98;15.95;;;;;;;4.13;57.08;97840.44;2074799;28;20247;-58
2024/01/20 12:16:38;;;;;;;41.78;17.85;;;;;;;4.13;58.70;97828.34;2074710;28;20237;-60
2024/01/20 12:17:40;;;;;;;32.83;17.00;;;;;;;4.43;57.64;97830.91;2073676;28;20197;-60
2024/01/20 12:18:41;;;;;;;40.72;15.23;;;;;;;4.79;56.81;97829.16;2067113;28;20216;-61
2024/01/20 12:19:44;;;;;;;31.90;15.40;;;;;;;4.82;56.59;97818.78;2075969;28;20231;-61
2024/01/20 12:20:46;;;;;;;26.75;15.73;;;;;;;5.03;57.16;97828.19;2074608;28;20194;-61
2024/01/20 12:21:47;;;;;;;36.63;15.88;;;;;;;5.04;56.82;97809.19;2072969;28;20315;-61
2024/01/20 12:22:49;;;;;;;33.72;16.15;;;;;;;5.53;55.50;97813.28;2071145;28;20193;-60
2024/01/20 12:23:51;;;;;;;26.52;14.82;;;;;;;4.16;57.48;97815.41;2069689;28;20225;-60
2024/01/20 12:24:54;;;;;;;28.63;15.52;;;;;;;3.74;58.44;97809.38;2075570;28;20239;-61
2024/01/20 12:25:56;;;;;;;26.25;14.43;;;;;;;3.58;57.73;97809.38;2081738;28;20684;-60
2024/01/20 12:26:58;;;;;;;26.85;14.75;;;;;;;2.91;59.96;97810.03;2074356;28;20201;-60
2024/01/20 12:28:00;;;;;;;27.38;14.50;;;;;;;4.45;58.66;97814.53;2074413;28;20871;-60
2024/01/20 12:29:02;;;;;;;23.10;12.68;;;;;;;2.29;58.84;97802.78;2075476;28;20246;-60
2024/01/20 12:30:05;;;;;;;30.85;15.63;;;;;;;3.40;59.57;97811.91;2073880;28;20388;-60
2024/01/20 12:31:07;;;;;;;32.05;13.55;;;;;;;4.30;57.69;97817.16;2073812;28;20251;-60
2024/01/20 12:32:09;;;;;;;25.45;13.15;;;;;;;5.02;56.50;97824.72;2075028;28;20197;-61
2024/01/20 12:33:10;;;;;;;22.38;11.65;;;;;;;4.20;55.44;97808.53;2070174;28;20227;-60
2024/01/20 12:34:12;;;;;;;25.17;12.48;;;;;;;4.06;55.94;97819.75;2074705;28;20311;-61
2024/01/20 12:35:14;;;;;;;23.13;12.65;;;;;;;4.72;55.71;97825.69;2074485;28;20200;-61
2024/01/20 12:36:15;;;;;;;25.00;13.60;;;;;;;5.02;55.41;97824.72;2072125;28;20297;-60
2024/01/20 12:37:17;;;;;;;23.55;14.25;;;;;;;5.89;54.82;97814.78;2073333;28;20230;-60
2024/01/20 12:38:18;;;;;;;24.30;13.40;;;;;;;5.58;53.57;97821.03;2074428;28;20243;-60
2024/01/20 12:39:21;;;;;;;22.08;12.77;;;;;;;4.87;53.93;97806.69;2071011;28;20202;-61
2024/01/20 12:40:24;;;;;;;21.88;12.10;;;;;;;4.69;54.80;97818.78;2073002;28;20194;-61
2024/01/20 12:41:26;;;;;;;26.80;12.80;;;;;;;4.59;55.76;97817.09;2072855;28;20202;-60
2024/01/20 12:42:28;;;;;;;25.73;13.98;;;;;;;4.48;56.44;97811.09;2075838;28;20373;-61
2024/01/20 12:43:30;;;;;;;24.90;13.35;;;;;;;4.46;56.36;97821.44;2076293;28;20315;-61
2024/01/20 12:44:32;;;;;;;24.58;13.50;;;;;;;5.12;56.27;97806.59;2071084;28;20202;-60
2024/01/20 12:45:33;;;;;;;35.05;14.52;;;;;;;5.75;54.69;97815.72;2071835;28;20194;-60
2024/01/20 12:46:35;;;;;;;24.88;13.63;;;;;;;5.85;54.54;97810.50;2074600;28;20201;-61
2024/01/20 12:47:36;;;;;;;27.67;13.80;;;;;;;6.23;53.05;97811.06;2075557;28;20610;-60
2024/01/20 12:48:38;;;;;;;27.98;14.63;;;;;;;6.20;53.39;97804.16;2073420;28;20228;-61
2024/01/20 12:49:43;;;;;;;28.45;13.75;;;;;;;6.78;53.13;97808.81;2073188;28;20244;-61
2024/01/20 12:50:44;;;;;;;20.48;12.75;;;;;;;6.66;51.82;97802.88;2075688;28;20305;-61
2024/01/20 12:51:46;;;;;;;21.38;12.73;;;;;;;5.43;53.70;97815.06;2072718;28;20248;-60
2024/01/20 12:52:48;;;;;;;22.67;12.88;;;;;;;6.79;54.43;97811.41;2073954;28;20552;-61
2024/01/20 12:53:49;;;;;;;20.63;12.35;;;;;;;6.56;52.67;97797.81;2072029;28;20624;-61
2024/01/20 12:54:53;;;;;;;24.42;14.75;;;;;;;5.69;53.33;97801.94;2076625;28;20201;-61
2024/01/20 12:55:55;;;;;;;24.17;13.18;;;;;;;6.08;52.78;97806.84;2072781;28;20190;-61